sensor_id;sensor_type;location;lat;lon;timestamp;P1;durP1;ratioP1;P2;durP2;ratioP2
11537;SDS011;50159;49.426;11.182;2022-10-31T00:01:20;9.33;;;5.37;;
11537;SDS011;50159;49.426;11.182;2022-10-31T00:03:51;7.80;;;4.33;;
11537;SDS011;50159;49.426;11.182;2022-10-31T00:06:18;4.77;;;4.37;;
11537;SDS011;50159;49.426;11.182;2022-10-31T00:08:46;8.60;;;4.77;;
11537;SDS011;50159;49.426;11.182;2022-10-31T00:11:17;6.57;;;4.20;;
11537;SDS011;50159;49.426;11.182;2022-10-31T00:13:44;10.93;;;4.37;;
11537;SDS011;50159;49.426;11.182;2022-10-31T00:16:17;7.77;;;4.63;;
11537;SDS011;50159;49.426;11.182;2022-10-31T00:18:53;6.90;;;4.60;;
11537;SDS011;50159;49.426;11.182;2022-10-31T00:21:24;6.20;;;4.63;;
11537;SDS011;50159;49.426;11.182;2022-10-31T00:23:51;7.90;;;4.67;;
11537;SDS011;50159;49.426;11.182;2022-10-31T00:26:18;5.67;;;5.10;;
11537;SDS011;50159;49.426;11.182;2022-10-31T00:28:45;6.77;;;4.83;;
11537;SDS011;50159;49.426;11.182;2022-10-31T00:31:13;8.83;;;5.27;;
11537;SDS011;50159;49.426;11.182;2022-10-31T00:33:41;10.83;;;5.63;;
11537;SDS011;50159;49.426;11.182;2022-10-31T00:36:10;6.77;;;4.33;;
11537;SDS011;50159;49.426;11.182;2022-10-31T00:38:44;7.53;;;5.57;;
11537;SDS011;50159;49.426;11.182;2022-10-31T00:41:13;10.27;;;5.37;;
11537;SDS011;50159;49.426;11.182;2022-10-31T00:43:42;5.20;;;4.70;;
11537;SDS011;50159;49.426;11.182;2022-10-31T00:46:10;7.83;;;4.83;;
11537;SDS011;50159;49.426;11.182;2022-10-31T00:48:37;11.27;;;5.60;;
11537;SDS011;50159;49.426;11.182;2022-10-31T00:51:04;11.13;;;4.37;;
11537;SDS011;50159;49.426;11.182;2022-10-31T00:53:32;8.70;;;4.40;;
11537;SDS011;50159;49.426;11.182;2022-10-31T00:55:58;4.87;;;4.30;;
11537;SDS011;50159;49.426;11.182;2022-10-31T00:58:25;7.33;;;4.80;;
11537;SDS011;50159;49.426;11.182;2022-10-31T01:00:52;4.93;;;4.53;;
11537;SDS011;50159;49.426;11.182;2022-10-31T01:03:26;5.67;;;5.00;;
11537;SDS011;50159;49.426;11.182;2022-10-31T01:06:00;12.30;;;4.63;;
11537;SDS011;50159;49.426;11.182;2022-10-31T01:08:33;6.53;;;4.50;;
11537;SDS011;50159;49.426;11.182;2022-10-31T01:11:10;6.77;;;5.07;;
11537;SDS011;50159;49.426;11.182;2022-10-31T01:13:40;5.33;;;3.93;;
11537;SDS011;50159;49.426;11.182;2022-10-31T01:16:08;4.63;;;4.23;;
11537;SDS011;50159;49.426;11.182;2022-10-31T01:18:40;5.53;;;4.50;;
11537;SDS011;50159;49.426;11.182;2022-10-31T01:21:09;7.13;;;4.77;;
11537;SDS011;50159;49.426;11.182;2022-10-31T01:23:40;5.70;;;4.20;;
11537;SDS011;50159;49.426;11.182;2022-10-31T01:26:14;4.33;;;3.93;;
11537;SDS011;50159;49.426;11.182;2022-10-31T01:28:45;4.33;;;3.93;;
11537;SDS011;50159;49.426;11.182;2022-10-31T01:31:20;8.73;;;4.00;;
11537;SDS011;50159;49.426;11.182;2022-10-31T01:33:49;3.90;;;3.70;;
11537;SDS011;50159;49.426;11.182;2022-10-31T01:36:24;5.00;;;4.17;;
11537;SDS011;50159;49.426;11.182;2022-10-31T01:38:56;5.40;;;4.10;;
11537;SDS011;50159;49.426;11.182;2022-10-31T01:41:31;8.87;;;4.70;;
11537;SDS011;50159;49.426;11.182;2022-10-31T01:44:02;4.53;;;4.13;;
11537;SDS011;50159;49.426;11.182;2022-10-31T01:49:42;4.70;;;4.23;;
11537;SDS011;50159;49.426;11.182;2022-10-31T01:52:27;4.60;;;4.20;;
11537;SDS011;50159;49.426;11.182;2022-10-31T01:55:09;4.47;;;3.43;;
11537;SDS011;50159;49.426;11.182;2022-10-31T01:57:45;5.40;;;3.60;;
11537;SDS011;50159;49.426;11.182;2022-10-31T02:00:17;4.37;;;3.93;;
11537;SDS011;50159;49.426;11.182;2022-10-31T02:02:46;4.60;;;4.17;;
11537;SDS011;50159;49.426;11.182;2022-10-31T02:05:17;3.90;;;3.60;;
11537;SDS011;50159;49.426;11.182;2022-10-31T02:07:52;5.50;;;4.07;;
11537;SDS011;50159;49.426;11.182;2022-10-31T02:10:25;4.67;;;3.77;;
11537;SDS011;50159;49.426;11.182;2022-10-31T02:12:53;7.57;;;4.77;;
11537;SDS011;50159;49.426;11.182;2022-10-31T02:15:24;10.17;;;4.10;;
11537;SDS011;50159;49.426;11.182;2022-10-31T02:17:52;7.53;;;4.07;;
11537;SDS011;50159;49.426;11.182;2022-10-31T02:20:19;6.57;;;4.17;;
11537;SDS011;50159;49.426;11.182;2022-10-31T02:25:43;5.50;;;4.47;;
11537;SDS011;50159;49.426;11.182;2022-10-31T02:37:05;11.17;;;5.33;;
11537;SDS011;50159;49.426;11.182;2022-10-31T02:42:41;5.67;;;3.87;;
11537;SDS011;50159;49.426;11.182;2022-10-31T02:45:21;9.87;;;4.20;;
11537;SDS011;50159;49.426;11.182;2022-10-31T02:47:58;5.90;;;4.63;;
11537;SDS011;50159;49.426;11.182;2022-10-31T02:50:34;8.00;;;4.87;;
11537;SDS011;50159;49.426;11.182;2022-10-31T02:53:08;8.77;;;4.70;;
11537;SDS011;50159;49.426;11.182;2022-10-31T02:58:05;8.20;;;4.20;;
11537;SDS011;50159;49.426;11.182;2022-10-31T03:07:00;9.43;;;5.53;;
11537;SDS011;50159;49.426;11.182;2022-10-31T03:12:32;9.93;;;5.67;;
11537;SDS011;50159;49.426;11.182;2022-10-31T03:15:15;12.47;;;6.03;;
11537;SDS011;50159;49.426;11.182;2022-10-31T03:20:26;5.97;;;5.27;;
11537;SDS011;50159;49.426;11.182;2022-10-31T03:23:09;6.13;;;5.50;;
11537;SDS011;50159;49.426;11.182;2022-10-31T03:25:42;6.33;;;4.70;;
11537;SDS011;50159;49.426;11.182;2022-10-31T03:28:11;8.30;;;5.07;;
11537;SDS011;50159;49.426;11.182;2022-10-31T03:30:45;9.13;;;4.70;;
11537;SDS011;50159;49.426;11.182;2022-10-31T03:33:16;7.00;;;4.73;;
11537;SDS011;50159;49.426;11.182;2022-10-31T03:35:50;4.40;;;4.00;;
11537;SDS011;50159;49.426;11.182;2022-10-31T03:38:23;9.80;;;4.60;;
11537;SDS011;50159;49.426;11.182;2022-10-31T03:40:51;6.43;;;5.03;;
11537;SDS011;50159;49.426;11.182;2022-10-31T03:43:25;5.57;;;5.07;;
11537;SDS011;50159;49.426;11.182;2022-10-31T03:45:56;4.97;;;4.43;;
11537;SDS011;50159;49.426;11.182;2022-10-31T03:48:24;9.23;;;4.57;;
11537;SDS011;50159;49.426;11.182;2022-10-31T03:50:56;7.10;;;4.60;;
11537;SDS011;50159;49.426;11.182;2022-10-31T03:56:53;5.53;;;5.00;;
11537;SDS011;50159;49.426;11.182;2022-10-31T03:59:34;6.20;;;4.83;;
11537;SDS011;50159;49.426;11.182;2022-10-31T04:02:07;9.03;;;5.33;;
11537;SDS011;50159;49.426;11.182;2022-10-31T04:04:40;5.53;;;4.87;;
11537;SDS011;50159;49.426;11.182;2022-10-31T04:07:10;9.77;;;5.33;;
11537;SDS011;50159;49.426;11.182;2022-10-31T04:09:40;7.87;;;4.87;;
11537;SDS011;50159;49.426;11.182;2022-10-31T04:12:12;10.77;;;5.50;;
11537;SDS011;50159;49.426;11.182;2022-10-31T04:14:42;8.70;;;4.87;;
11537;SDS011;50159;49.426;11.182;2022-10-31T04:17:14;8.17;;;4.77;;
11537;SDS011;50159;49.426;11.182;2022-10-31T04:19:45;6.33;;;5.20;;
11537;SDS011;50159;49.426;11.182;2022-10-31T04:22:12;9.07;;;4.43;;
11537;SDS011;50159;49.426;11.182;2022-10-31T04:24:40;5.30;;;4.80;;
11537;SDS011;50159;49.426;11.182;2022-10-31T04:27:07;4.93;;;4.50;;
11537;SDS011;50159;49.426;11.182;2022-10-31T04:29:33;5.30;;;4.80;;
11537;SDS011;50159;49.426;11.182;2022-10-31T04:32:00;6.87;;;4.90;;
11537;SDS011;50159;49.426;11.182;2022-10-31T04:34:27;9.37;;;4.50;;
11537;SDS011;50159;49.426;11.182;2022-10-31T04:36:54;7.57;;;5.00;;
11537;SDS011;50159;49.426;11.182;2022-10-31T04:39:20;6.80;;;5.07;;
11537;SDS011;50159;49.426;11.182;2022-10-31T04:41:52;5.97;;;5.23;;
11537;SDS011;50159;49.426;11.182;2022-10-31T04:44:18;5.97;;;5.27;;
11537;SDS011;50159;49.426;11.182;2022-10-31T04:46:45;7.20;;;4.87;;
11537;SDS011;50159;49.426;11.182;2022-10-31T04:49:12;5.80;;;5.03;;
11537;SDS011;50159;49.426;11.182;2022-10-31T04:51:39;7.47;;;5.60;;
11537;SDS011;50159;49.426;11.182;2022-10-31T04:54:06;8.07;;;6.63;;
11537;SDS011;50159;49.426;11.182;2022-10-31T04:56:32;6.80;;;5.50;;
11537;SDS011;50159;49.426;11.182;2022-10-31T04:58:59;6.10;;;5.50;;
11537;SDS011;50159;49.426;11.182;2022-10-31T05:01:26;5.67;;;4.80;;
11537;SDS011;50159;49.426;11.182;2022-10-31T05:03:54;8.53;;;5.23;;
11537;SDS011;50159;49.426;11.182;2022-10-31T05:06:21;5.97;;;5.33;;
11537;SDS011;50159;49.426;11.182;2022-10-31T05:08:47;6.03;;;5.20;;
11537;SDS011;50159;49.426;11.182;2022-10-31T05:11:14;12.90;;;5.97;;
11537;SDS011;50159;49.426;11.182;2022-10-31T05:13:41;9.27;;;5.37;;
11537;SDS011;50159;49.426;11.182;2022-10-31T05:16:08;10.17;;;5.87;;
11537;SDS011;50159;49.426;11.182;2022-10-31T05:18:35;7.80;;;6.57;;
11537;SDS011;50159;49.426;11.182;2022-10-31T05:21:02;11.27;;;6.73;;
11537;SDS011;50159;49.426;11.182;2022-10-31T05:23:29;11.53;;;6.53;;
11537;SDS011;50159;49.426;11.182;2022-10-31T05:25:55;9.07;;;6.03;;
11537;SDS011;50159;49.426;11.182;2022-10-31T05:28:22;13.03;;;6.17;;
11537;SDS011;50159;49.426;11.182;2022-10-31T05:30:49;11.97;;;6.47;;
11537;SDS011;50159;49.426;11.182;2022-10-31T05:33:16;11.70;;;6.60;;
11537;SDS011;50159;49.426;11.182;2022-10-31T05:35:42;12.23;;;6.93;;
11537;SDS011;50159;49.426;11.182;2022-10-31T05:38:09;7.00;;;6.07;;
11537;SDS011;50159;49.426;11.182;2022-10-31T05:40:36;11.63;;;6.73;;
11537;SDS011;50159;49.426;11.182;2022-10-31T05:43:02;10.87;;;6.83;;
11537;SDS011;50159;49.426;11.182;2022-10-31T05:45:29;10.40;;;5.60;;
11537;SDS011;50159;49.426;11.182;2022-10-31T05:47:57;9.77;;;6.13;;
11537;SDS011;50159;49.426;11.182;2022-10-31T05:50:27;7.57;;;5.70;;
11537;SDS011;50159;49.426;11.182;2022-10-31T05:52:58;6.73;;;5.23;;
11537;SDS011;50159;49.426;11.182;2022-10-31T05:55:30;8.83;;;6.00;;
11537;SDS011;50159;49.426;11.182;2022-10-31T05:57:58;6.00;;;5.47;;
11537;SDS011;50159;49.426;11.182;2022-10-31T06:00:26;11.70;;;6.00;;
11537;SDS011;50159;49.426;11.182;2022-10-31T06:02:57;12.13;;;5.87;;
11537;SDS011;50159;49.426;11.182;2022-10-31T06:05:30;11.00;;;6.40;;
11537;SDS011;50159;49.426;11.182;2022-10-31T06:07:57;11.07;;;5.87;;
11537;SDS011;50159;49.426;11.182;2022-10-31T06:10:25;13.70;;;6.20;;
11537;SDS011;50159;49.426;11.182;2022-10-31T06:12:53;9.87;;;6.27;;
11537;SDS011;50159;49.426;11.182;2022-10-31T06:15:20;13.17;;;6.23;;
11537;SDS011;50159;49.426;11.182;2022-10-31T06:18:03;6.50;;;5.87;;
11537;SDS011;50159;49.426;11.182;2022-10-31T06:20:32;8.63;;;5.97;;
11537;SDS011;50159;49.426;11.182;2022-10-31T06:23:00;6.43;;;5.73;;
11537;SDS011;50159;49.426;11.182;2022-10-31T06:25:28;5.93;;;5.33;;
11537;SDS011;50159;49.426;11.182;2022-10-31T06:27:55;6.87;;;5.50;;
11537;SDS011;50159;49.426;11.182;2022-10-31T06:30:22;5.60;;;5.10;;
11537;SDS011;50159;49.426;11.182;2022-10-31T06:32:49;11.67;;;5.80;;
11537;SDS011;50159;49.426;11.182;2022-10-31T06:35:16;7.50;;;5.33;;
11537;SDS011;50159;49.426;11.182;2022-10-31T06:37:50;6.10;;;5.60;;
11537;SDS011;50159;49.426;11.182;2022-10-31T06:40:19;11.20;;;6.17;;
11537;SDS011;50159;49.426;11.182;2022-10-31T06:42:46;12.33;;;6.07;;
11537;SDS011;50159;49.426;11.182;2022-10-31T06:45:12;6.93;;;5.43;;
11537;SDS011;50159;49.426;11.182;2022-10-31T06:47:39;6.67;;;5.90;;
11537;SDS011;50159;49.426;11.182;2022-10-31T06:50:26;7.57;;;6.37;;
11537;SDS011;50159;49.426;11.182;2022-10-31T06:52:53;8.17;;;5.83;;
11537;SDS011;50159;49.426;11.182;2022-10-31T06:55:23;10.90;;;6.40;;
11537;SDS011;50159;49.426;11.182;2022-10-31T06:57:56;6.13;;;5.63;;
11537;SDS011;50159;49.426;11.182;2022-10-31T07:00:29;7.10;;;5.67;;
11537;SDS011;50159;49.426;11.182;2022-10-31T07:03:00;10.60;;;5.77;;
11537;SDS011;50159;49.426;11.182;2022-10-31T07:05:30;6.77;;;5.33;;
11537;SDS011;50159;49.426;11.182;2022-10-31T07:07:58;8.13;;;4.87;;
11537;SDS011;50159;49.426;11.182;2022-10-31T07:10:29;6.07;;;5.50;;
11537;SDS011;50159;49.426;11.182;2022-10-31T07:13:05;5.37;;;4.20;;
11537;SDS011;50159;49.426;11.182;2022-10-31T07:15:36;5.37;;;4.80;;
11537;SDS011;50159;49.426;11.182;2022-10-31T07:18:06;4.93;;;4.23;;
11537;SDS011;50159;49.426;11.182;2022-10-31T07:20:35;5.57;;;5.07;;
11537;SDS011;50159;49.426;11.182;2022-10-31T07:23:02;4.50;;;4.13;;
11537;SDS011;50159;49.426;11.182;2022-10-31T07:25:30;4.50;;;4.10;;
11537;SDS011;50159;49.426;11.182;2022-10-31T07:27:57;5.07;;;4.53;;
11537;SDS011;50159;49.426;11.182;2022-10-31T07:30:24;4.57;;;4.17;;
11537;SDS011;50159;49.426;11.182;2022-10-31T07:32:51;4.30;;;4.00;;
11537;SDS011;50159;49.426;11.182;2022-10-31T07:35:19;5.93;;;4.53;;
11537;SDS011;50159;49.426;11.182;2022-10-31T07:37:52;7.10;;;4.20;;
11537;SDS011;50159;49.426;11.182;2022-10-31T07:40:19;4.57;;;4.17;;
11537;SDS011;50159;49.426;11.182;2022-10-31T07:42:48;4.03;;;3.73;;
11537;SDS011;50159;49.426;11.182;2022-10-31T07:45:19;4.63;;;3.97;;
11537;SDS011;50159;49.426;11.182;2022-10-31T07:47:50;4.43;;;4.03;;
11537;SDS011;50159;49.426;11.182;2022-10-31T07:50:19;4.13;;;3.83;;
11537;SDS011;50159;49.426;11.182;2022-10-31T07:52:59;7.70;;;4.03;;
11537;SDS011;50159;49.426;11.182;2022-10-31T07:55:37;4.93;;;3.47;;
11537;SDS011;50159;49.426;11.182;2022-10-31T07:58:05;3.90;;;3.70;;
11537;SDS011;50159;49.426;11.182;2022-10-31T08:00:37;5.60;;;3.73;;
11537;SDS011;50159;49.426;11.182;2022-10-31T08:03:07;4.03;;;3.67;;
11537;SDS011;50159;49.426;11.182;2022-10-31T08:05:37;4.30;;;4.00;;
11537;SDS011;50159;49.426;11.182;2022-10-31T08:08:04;5.17;;;4.27;;
11537;SDS011;50159;49.426;11.182;2022-10-31T08:10:32;3.90;;;3.67;;
11537;SDS011;50159;49.426;11.182;2022-10-31T08:13:01;4.90;;;3.53;;
11537;SDS011;50159;49.426;11.182;2022-10-31T08:15:31;4.57;;;4.07;;
11537;SDS011;50159;49.426;11.182;2022-10-31T08:18:00;4.93;;;4.53;;
11537;SDS011;50159;49.426;11.182;2022-10-31T08:20:28;5.57;;;4.43;;
11537;SDS011;50159;49.426;11.182;2022-10-31T08:25:28;11.23;;;5.23;;
11537;SDS011;50159;49.426;11.182;2022-10-31T08:28:03;5.90;;;4.47;;
11537;SDS011;50159;49.426;11.182;2022-10-31T08:30:32;7.30;;;4.23;;
11537;SDS011;50159;49.426;11.182;2022-10-31T08:33:05;5.90;;;5.30;;
11537;SDS011;50159;49.426;11.182;2022-10-31T08:35:44;4.90;;;4.57;;
11537;SDS011;50159;49.426;11.182;2022-10-31T08:38:11;4.40;;;4.03;;
11537;SDS011;50159;49.426;11.182;2022-10-31T08:40:39;4.10;;;3.83;;
11537;SDS011;50159;49.426;11.182;2022-10-31T08:43:14;4.17;;;3.87;;
11537;SDS011;50159;49.426;11.182;2022-10-31T08:45:43;5.10;;;4.20;;
11537;SDS011;50159;49.426;11.182;2022-10-31T08:48:14;5.93;;;4.20;;
11537;SDS011;50159;49.426;11.182;2022-10-31T08:50:43;4.57;;;4.17;;
11537;SDS011;50159;49.426;11.182;2022-10-31T08:53:12;7.10;;;4.90;;
11537;SDS011;50159;49.426;11.182;2022-10-31T08:55:44;5.80;;;4.37;;
11537;SDS011;50159;49.426;11.182;2022-10-31T08:58:13;5.43;;;4.30;;
11537;SDS011;50159;49.426;11.182;2022-10-31T09:00:44;5.63;;;4.93;;
11537;SDS011;50159;49.426;11.182;2022-10-31T09:03:14;4.97;;;4.57;;
11537;SDS011;50159;49.426;11.182;2022-10-31T09:05:45;5.93;;;5.30;;
11537;SDS011;50159;49.426;11.182;2022-10-31T09:08:12;5.20;;;4.80;;
11537;SDS011;50159;49.426;11.182;2022-10-31T09:10:42;8.70;;;4.83;;
11537;SDS011;50159;49.426;11.182;2022-10-31T09:13:10;6.90;;;4.90;;
11537;SDS011;50159;49.426;11.182;2022-10-31T09:15:41;6.07;;;4.87;;
11537;SDS011;50159;49.426;11.182;2022-10-31T09:18:10;6.20;;;4.80;;
11537;SDS011;50159;49.426;11.182;2022-10-31T09:20:40;5.10;;;4.60;;
11537;SDS011;50159;49.426;11.182;2022-10-31T09:23:13;5.93;;;4.63;;
11537;SDS011;50159;49.426;11.182;2022-10-31T09:25:46;7.30;;;4.60;;
11537;SDS011;50159;49.426;11.182;2022-10-31T09:28:17;7.20;;;4.63;;
11537;SDS011;50159;49.426;11.182;2022-10-31T09:30:47;5.13;;;4.33;;
11537;SDS011;50159;49.426;11.182;2022-10-31T09:33:17;5.53;;;4.57;;
11537;SDS011;50159;49.426;11.182;2022-10-31T09:35:44;6.57;;;4.70;;
11537;SDS011;50159;49.426;11.182;2022-10-31T09:38:13;6.60;;;4.60;;
11537;SDS011;50159;49.426;11.182;2022-10-31T09:40:46;9.37;;;4.57;;
11537;SDS011;50159;49.426;11.182;2022-10-31T09:43:39;5.07;;;4.47;;
11537;SDS011;50159;49.426;11.182;2022-10-31T09:46:40;6.87;;;5.17;;
11537;SDS011;50159;49.426;11.182;2022-10-31T09:52:16;7.10;;;4.60;;
11537;SDS011;50159;49.426;11.182;2022-10-31T09:54:58;6.83;;;4.00;;
11537;SDS011;50159;49.426;11.182;2022-10-31T09:57:42;6.47;;;4.43;;
11537;SDS011;50159;49.426;11.182;2022-10-31T10:00:16;4.43;;;4.03;;
11537;SDS011;50159;49.426;11.182;2022-10-31T10:02:51;5.67;;;4.77;;
11537;SDS011;50159;49.426;11.182;2022-10-31T10:05:29;5.17;;;4.07;;
11537;SDS011;50159;49.426;11.182;2022-10-31T10:08:19;6.47;;;4.33;;
11537;SDS011;50159;49.426;11.182;2022-10-31T10:28:40;4.97;;;4.03;;
11537;SDS011;50159;49.426;11.182;2022-10-31T10:31:14;8.27;;;3.90;;
11537;SDS011;50159;49.426;11.182;2022-10-31T10:36:42;3.83;;;3.30;;
11537;SDS011;50159;49.426;11.182;2022-10-31T10:41:51;5.13;;;3.40;;
11537;SDS011;50159;49.426;11.182;2022-10-31T10:44:39;5.67;;;3.37;;
11537;SDS011;50159;49.426;11.182;2022-10-31T10:47:36;4.43;;;3.47;;
11537;SDS011;50159;49.426;11.182;2022-10-31T10:50:14;3.87;;;3.40;;
11537;SDS011;50159;49.426;11.182;2022-10-31T10:58:16;11.03;;;3.63;;
11537;SDS011;50159;49.426;11.182;2022-10-31T11:00:44;4.93;;;3.77;;
11537;SDS011;50159;49.426;11.182;2022-10-31T11:03:13;4.43;;;3.43;;
11537;SDS011;50159;49.426;11.182;2022-10-31T11:05:52;5.57;;;3.83;;
11537;SDS011;50159;49.426;11.182;2022-10-31T11:08:27;4.17;;;3.77;;
11537;SDS011;50159;49.426;11.182;2022-10-31T11:11:03;5.77;;;3.20;;
11537;SDS011;50159;49.426;11.182;2022-10-31T11:13:41;4.93;;;3.23;;
11537;SDS011;50159;49.426;11.182;2022-10-31T11:16:13;4.07;;;3.30;;
11537;SDS011;50159;49.426;11.182;2022-10-31T11:19:04;4.20;;;3.17;;
11537;SDS011;50159;49.426;11.182;2022-10-31T11:21:42;4.77;;;3.27;;
11537;SDS011;50159;49.426;11.182;2022-10-31T11:24:23;3.97;;;3.57;;
11537;SDS011;50159;49.426;11.182;2022-10-31T11:27:02;6.07;;;3.03;;
11537;SDS011;50159;49.426;11.182;2022-10-31T11:29:40;3.03;;;2.80;;
11537;SDS011;50159;49.426;11.182;2022-10-31T11:32:08;4.33;;;3.30;;
11537;SDS011;50159;49.426;11.182;2022-10-31T11:34:51;7.13;;;3.10;;
11537;SDS011;50159;49.426;11.182;2022-10-31T11:37:25;3.20;;;2.90;;
11537;SDS011;50159;49.426;11.182;2022-10-31T11:39:56;4.93;;;3.30;;
11537;SDS011;50159;49.426;11.182;2022-10-31T11:42:30;2.87;;;2.67;;
11537;SDS011;50159;49.426;11.182;2022-10-31T11:45:06;4.73;;;2.70;;
11537;SDS011;50159;49.426;11.182;2022-10-31T11:48:00;2.60;;;2.43;;
11537;SDS011;50159;49.426;11.182;2022-10-31T11:50:36;7.10;;;3.00;;
11537;SDS011;50159;49.426;11.182;2022-10-31T11:53:13;6.23;;;2.90;;
11537;SDS011;50159;49.426;11.182;2022-10-31T11:55:45;3.37;;;3.03;;
11537;SDS011;50159;49.426;11.182;2022-10-31T11:58:22;3.00;;;2.80;;
11537;SDS011;50159;49.426;11.182;2022-10-31T12:00:52;3.17;;;2.63;;
11537;SDS011;50159;49.426;11.182;2022-10-31T12:08:43;2.40;;;2.30;;
11537;SDS011;50159;49.426;11.182;2022-10-31T12:11:31;2.73;;;2.53;;
11537;SDS011;50159;49.426;11.182;2022-10-31T12:17:55;2.60;;;2.47;;
11537;SDS011;50159;49.426;11.182;2022-10-31T12:21:20;2.80;;;2.40;;
11537;SDS011;50159;49.426;11.182;2022-10-31T12:24:25;4.70;;;2.60;;
11537;SDS011;50159;49.426;11.182;2022-10-31T12:30:01;3.47;;;2.43;;
11537;SDS011;50159;49.426;11.182;2022-10-31T12:41:58;4.17;;;2.80;;
11537;SDS011;50159;49.426;11.182;2022-10-31T12:53:51;4.13;;;2.20;;
11537;SDS011;50159;49.426;11.182;2022-10-31T12:56:42;3.67;;;2.40;;
11537;SDS011;50159;49.426;11.182;2022-10-31T13:05:16;2.90;;;2.30;;
11537;SDS011;50159;49.426;11.182;2022-10-31T13:08:08;4.97;;;1.97;;
11537;SDS011;50159;49.426;11.182;2022-10-31T13:10:52;1.70;;;1.60;;
11537;SDS011;50159;49.426;11.182;2022-10-31T13:16:24;1.37;;;1.27;;
11537;SDS011;50159;49.426;11.182;2022-10-31T13:19:05;2.40;;;1.70;;
11537;SDS011;50159;49.426;11.182;2022-10-31T13:22:10;3.40;;;2.10;;
11537;SDS011;50159;49.426;11.182;2022-10-31T13:30:23;3.63;;;1.93;;
11537;SDS011;50159;49.426;11.182;2022-10-31T13:46:46;1.70;;;1.60;;
11537;SDS011;50159;49.426;11.182;2022-10-31T13:49:47;2.03;;;1.80;;
11537;SDS011;50159;49.426;11.182;2022-10-31T13:54:37;3.60;;;1.77;;
11537;SDS011;50159;49.426;11.182;2022-10-31T13:57:18;2.20;;;1.50;;
11537;SDS011;50159;49.426;11.182;2022-10-31T14:00:00;1.60;;;1.27;;
11537;SDS011;50159;49.426;11.182;2022-10-31T14:02:47;3.20;;;1.43;;
11537;SDS011;50159;49.426;11.182;2022-10-31T14:05:26;1.43;;;1.37;;
11537;SDS011;50159;49.426;11.182;2022-10-31T14:07:57;3.50;;;1.80;;
11537;SDS011;50159;49.426;11.182;2022-10-31T14:15:52;1.30;;;1.30;;
11537;SDS011;50159;49.426;11.182;2022-10-31T14:18:34;1.57;;;1.50;;
11537;SDS011;50159;49.426;11.182;2022-10-31T14:23:50;1.57;;;1.47;;
11537;SDS011;50159;49.426;11.182;2022-10-31T14:28:53;1.67;;;1.57;;
11537;SDS011;50159;49.426;11.182;2022-10-31T14:31:27;1.80;;;1.70;;
11537;SDS011;50159;49.426;11.182;2022-10-31T14:34:21;4.37;;;1.60;;
11537;SDS011;50159;49.426;11.182;2022-10-31T14:42:54;1.60;;;1.50;;
11537;SDS011;50159;49.426;11.182;2022-10-31T14:46:02;1.57;;;1.40;;
11537;SDS011;50159;49.426;11.182;2022-10-31T14:51:57;1.37;;;1.23;;
11537;SDS011;50159;49.426;11.182;2022-10-31T14:54:27;2.03;;;1.87;;
11537;SDS011;50159;49.426;11.182;2022-10-31T14:57:04;1.90;;;1.80;;
11537;SDS011;50159;49.426;11.182;2022-10-31T14:59:39;2.10;;;2.00;;
11537;SDS011;50159;49.426;11.182;2022-10-31T15:02:14;3.13;;;1.73;;
11537;SDS011;50159;49.426;11.182;2022-10-31T15:05:09;1.90;;;1.80;;
11537;SDS011;50159;49.426;11.182;2022-10-31T15:07:47;3.87;;;1.97;;
11537;SDS011;50159;49.426;11.182;2022-10-31T15:10:51;1.80;;;1.70;;
11537;SDS011;50159;49.426;11.182;2022-10-31T15:13:19;2.53;;;2.30;;
11537;SDS011;50159;49.426;11.182;2022-10-31T15:15:49;2.43;;;2.23;;
11537;SDS011;50159;49.426;11.182;2022-10-31T15:18:21;4.67;;;2.10;;
11537;SDS011;50159;49.426;11.182;2022-10-31T15:20:53;2.07;;;1.90;;
11537;SDS011;50159;49.426;11.182;2022-10-31T15:23:26;4.13;;;2.10;;
11537;SDS011;50159;49.426;11.182;2022-10-31T15:25:59;2.10;;;2.00;;
11537;SDS011;50159;49.426;11.182;2022-10-31T15:28:31;2.07;;;1.93;;
11537;SDS011;50159;49.426;11.182;2022-10-31T15:30:59;2.30;;;2.10;;
11537;SDS011;50159;49.426;11.182;2022-10-31T15:33:29;2.87;;;2.33;;
11537;SDS011;50159;49.426;11.182;2022-10-31T15:36:19;2.27;;;2.07;;
11537;SDS011;50159;49.426;11.182;2022-10-31T15:38:56;4.80;;;2.57;;
11537;SDS011;50159;49.426;11.182;2022-10-31T15:44:21;2.43;;;2.17;;
11537;SDS011;50159;49.426;11.182;2022-10-31T15:46:58;2.53;;;2.33;;
11537;SDS011;50159;49.426;11.182;2022-10-31T15:49:54;3.60;;;2.83;;
11537;SDS011;50159;49.426;11.182;2022-10-31T15:55:04;6.30;;;3.17;;
11537;SDS011;50159;49.426;11.182;2022-10-31T15:57:39;6.17;;;2.90;;
11537;SDS011;50159;49.426;11.182;2022-10-31T16:05:59;2.67;;;2.47;;
11537;SDS011;50159;49.426;11.182;2022-10-31T16:16:18;4.97;;;2.83;;
11537;SDS011;50159;49.426;11.182;2022-10-31T16:19:04;3.73;;;2.80;;
11537;SDS011;50159;49.426;11.182;2022-10-31T16:21:43;2.47;;;2.27;;
11537;SDS011;50159;49.426;11.182;2022-10-31T16:24:24;2.70;;;2.50;;
11537;SDS011;50159;49.426;11.182;2022-10-31T16:27:05;6.43;;;4.17;;
11537;SDS011;50159;49.426;11.182;2022-10-31T16:29:45;8.70;;;5.40;;
11537;SDS011;50159;49.426;11.182;2022-10-31T16:32:23;8.50;;;5.13;;
11537;SDS011;50159;49.426;11.182;2022-10-31T16:34:57;7.50;;;4.80;;
11537;SDS011;50159;49.426;11.182;2022-10-31T16:37:43;6.30;;;4.13;;
11537;SDS011;50159;49.426;11.182;2022-10-31T16:40:11;3.80;;;3.50;;
11537;SDS011;50159;49.426;11.182;2022-10-31T16:42:39;5.83;;;3.70;;
11537;SDS011;50159;49.426;11.182;2022-10-31T16:45:08;5.03;;;3.90;;
11537;SDS011;50159;49.426;11.182;2022-10-31T16:47:46;7.00;;;4.17;;
11537;SDS011;50159;49.426;11.182;2022-10-31T16:50:24;5.17;;;4.00;;
11537;SDS011;50159;49.426;11.182;2022-10-31T16:52:53;3.47;;;3.23;;
11537;SDS011;50159;49.426;11.182;2022-10-31T16:55:46;3.80;;;3.40;;
11537;SDS011;50159;49.426;11.182;2022-10-31T16:58:21;3.33;;;3.03;;
11537;SDS011;50159;49.426;11.182;2022-10-31T17:00:52;5.70;;;3.20;;
11537;SDS011;50159;49.426;11.182;2022-10-31T17:03:19;4.83;;;2.97;;
11537;SDS011;50159;49.426;11.182;2022-10-31T17:05:46;5.50;;;2.67;;
11537;SDS011;50159;49.426;11.182;2022-10-31T17:08:13;5.33;;;2.67;;
11537;SDS011;50159;49.426;11.182;2022-10-31T17:10:41;3.20;;;2.90;;
11537;SDS011;50159;49.426;11.182;2022-10-31T17:13:24;4.20;;;3.10;;
11537;SDS011;50159;49.426;11.182;2022-10-31T17:15:56;7.27;;;3.30;;
11537;SDS011;50159;49.426;11.182;2022-10-31T17:18:26;5.57;;;3.60;;
11537;SDS011;50159;49.426;11.182;2022-10-31T17:21:02;7.83;;;4.03;;
11537;SDS011;50159;49.426;11.182;2022-10-31T17:23:31;9.87;;;4.43;;
11537;SDS011;50159;49.426;11.182;2022-10-31T17:25:58;11.40;;;6.27;;
11537;SDS011;50159;49.426;11.182;2022-10-31T17:28:25;9.90;;;8.20;;
11537;SDS011;50159;49.426;11.182;2022-10-31T17:30:53;9.00;;;6.63;;
11537;SDS011;50159;49.426;11.182;2022-10-31T17:33:24;5.33;;;4.83;;
11537;SDS011;50159;49.426;11.182;2022-10-31T17:35:51;7.40;;;5.23;;
11537;SDS011;50159;49.426;11.182;2022-10-31T17:38:18;8.97;;;5.70;;
11537;SDS011;50159;49.426;11.182;2022-10-31T17:40:44;8.17;;;5.37;;
11537;SDS011;50159;49.426;11.182;2022-10-31T17:43:16;6.30;;;5.00;;
11537;SDS011;50159;49.426;11.182;2022-10-31T17:45:43;6.07;;;5.13;;
11537;SDS011;50159;49.426;11.182;2022-10-31T17:48:10;6.30;;;4.80;;
11537;SDS011;50159;49.426;11.182;2022-10-31T17:50:38;5.90;;;4.73;;
11537;SDS011;50159;49.426;11.182;2022-10-31T17:53:04;4.70;;;3.63;;
11537;SDS011;50159;49.426;11.182;2022-10-31T17:55:31;6.93;;;5.47;;
11537;SDS011;50159;49.426;11.182;2022-10-31T17:58:02;4.20;;;3.80;;